Comstock, Minnesota
Current Conditions -  °F | °C
As of 7:14 AM on Saturday 25 Oct 2014 (Local Time) from KJKJ Reporting Station
Clear Clear  
Wind Chill: 41°   Ceiling: Unl
Heat Index: 45°   Visibility: 10mi
Dew Point: 34°   Wind: 7mph
Humidity: 66%   Direction: 290°WNW
Pressure: 30.06"   Gusts: NA
Location:  46.66°N, 96.75°W
Report Text: KJKJ 251214Z AUTO 29006KT 10SM CLR 07/01 A3006 RMK AO2
Loading
Personal Weather Stations






























Interactive Weather Map
Tropical Storm Tracking
New forecast layout! Learn more

10-Day Weather Forecast

Advertisements
Track Severe Weather on mobile